Aviasiya Meteoroloji Mərkəzi (amm) – Azərbaycan Respublikasının hava məkanında uçuşların meteoroloji təminatı üzrə əsas məsul və səlahiyyətli orqan



Yüklə 445 b.
tarix01.11.2017
ölçüsü445 b.



Aviasiya Meteoroloji Mərkəzi (AMM) – Azərbaycan Respublikasının hava məkanında uçuşların meteoroloji təminatı üzrə əsas məsul və səlahiyyətli orqan

  • Aviasiya Meteoroloji Mərkəzi (AMM) – Azərbaycan Respublikasının hava məkanında uçuşların meteoroloji təminatı üzrə əsas məsul və səlahiyyətli orqan

  • Aviasiya meteoroloji stansiyası - beynəlxalq aeronaviqasiyada istifadə olunan meteoroloji məlumatların tərtib olunması məqsədilə meteoroloji müşahidələrin aparılması üçün nəzərdə tutulmuş stansiya.

  • Aerodrom – Hava gəmilərinin tam və ya qismən gediş –gəlişi və hərəkəti üçün nəzərdə tutulmuş, quru və su səthinin müəyyən sahəsi (bina, tikinti və avadanlıq daxil olmaqla).









































METAR – aerodrom üzrə müntəzəm məlumat



METAR UBBB 191000Z 17014KT 9999 SCT028 26/18 Q1011 R88/CLRD// NOSIG=

  • METAR UBBB 191000Z 17014KT 9999 SCT028 26/18 Q1011 R88/CLRD// NOSIG=

  • TAF UBBB 190500Z 1906/2006 14008KT 9999 SCT020 TX26/1911Z TN17/2002Z TEMPO 1906/1915 16012KT TEMPO 1920/2004 VRB04KT 3000 BR SCT003=





: FILE -> amm
FILE -> Əczaçılıq (ali)
FILE -> Narkalogiya
amm -> Fənn üzrə bilik və bacarıqlara olan tələblər: Fənn üzrə bilik və bacarıqlara olan tələblər
amm -> Atis radioyayım ötürücüləri aşağıdakı tələblərə cavab verməlidir
amm -> Metar (SA) müntəzəm hava məlumatı, speci (SP) qeyri-müntəzəm xüsusi məlumat. Metar (SA) müntəzəm hava məlumatı, speci (SP) qeyri-müntəzəm xüsusi məlumat
amm -> Bulud – yer səthindən müəyyən hündürlükdə havada asılı vəziyyətdə olan damcıları və/və ya buz kristallarının toplusuna (su buxarının kondensasiya və/vəya sublimasiyasının məhsulu) deyilir. Bulud
amm -> Yyggiw IIIII iRiXhvv nddff 1snttt 2snTdTdTd 4рррр
amm -> Təzyiqi hPa-dan mm c s. çevirmək üçün hektopaskalı ¾-ə (0,75) vurmaq lazımdır. Təzyiqi hPa-dan mm c s. çevirmək üçün hektopaskalı ¾-ə (0,75) vurmaq lazımdır


Dostları ilə paylaş:


Verilənlər bazası müəlliflik hüququ ilə müdafiə olunur ©genderi.org 2017
rəhbərliyinə müraciət

    Ana səhifə